createdAt,value
2022-12-25T00:01:38.797Z,21.08
2022-12-25T00:04:05.376Z,25.63
2022-12-25T00:06:31.901Z,16.43
2022-12-25T00:08:58.294Z,13.45
2022-12-25T00:11:24.726Z,17.25
2022-12-25T00:13:51.199Z,21.85
2022-12-25T00:16:24.376Z,17.23
2022-12-25T00:18:51.706Z,27.03
2022-12-25T00:21:20.198Z,19.17
2022-12-25T00:23:46.908Z,15.30
2022-12-25T00:26:15.798Z,14.93
2022-12-25T00:28:43.046Z,17.95
2022-12-25T00:31:15.309Z,12.10
2022-12-25T00:33:43.388Z,14.90
2022-12-25T00:36:11.384Z,15.85
2022-12-25T00:38:39.627Z,15.23
2022-12-25T00:41:44.882Z,20.23
2022-12-25T00:44:13.791Z,16.30
2022-12-25T00:46:41.251Z,14.48
2022-12-25T00:49:07.803Z,20.63
2022-12-25T00:51:34.222Z,10.85
2022-12-25T00:54:00.865Z,18.15
2022-12-25T00:56:27.483Z,13.53
2022-12-25T00:58:54.933Z,15.90
2022-12-25T01:01:21.567Z,15.80
2022-12-25T01:03:48.039Z,18.92
2022-12-25T01:06:14.389Z,18.20
2022-12-25T01:09:02.521Z,15.27
2022-12-25T01:11:29.440Z,14.98
2022-12-25T01:13:56.209Z,19.20
2022-12-25T01:16:22.648Z,13.82
2022-12-25T01:18:49.157Z,13.02
2022-12-25T01:21:17.283Z,17.53
2022-12-25T01:23:44.685Z,13.15
2022-12-25T01:26:13.401Z,13.88
2022-12-25T01:28:40.428Z,13.40
2022-12-25T01:31:10.672Z,15.82
2022-12-25T01:33:38.501Z,22.77
2022-12-25T01:36:13.259Z,16.98
2022-12-25T01:38:39.621Z,10.07
2022-12-25T01:41:06.002Z,13.93
2022-12-25T01:43:33.836Z,10.75
2022-12-25T01:46:00.645Z,17.67
2022-12-25T01:48:35.411Z,13.30
2022-12-25T01:51:06.643Z,14.15
2022-12-25T01:53:33.629Z,16.27
2022-12-25T01:56:05.136Z,13.93
2022-12-25T01:58:32.093Z,7.27
2022-12-25T02:00:58.543Z,13.32
2022-12-25T02:03:25.413Z,11.05
2022-12-25T02:05:52.529Z,11.98
2022-12-25T02:08:21.029Z,11.00
2022-12-25T02:10:47.899Z,22.40
2022-12-25T02:13:18.239Z,12.23
2022-12-25T02:16:13.140Z,11.60
2022-12-25T02:18:51.820Z,14.48
2022-12-25T02:21:23.261Z,12.68
2022-12-25T02:24:06.371Z,12.30
2022-12-25T02:26:43.631Z,9.90
2022-12-25T02:29:12.538Z,13.60
2022-12-25T02:31:45.858Z,15.20
2022-12-25T02:34:26.113Z,14.48
2022-12-25T02:37:21.023Z,14.03
2022-12-25T02:40:00.737Z,15.35
2022-12-25T02:42:52.790Z,12.68
2022-12-25T02:45:53.096Z,14.35
2022-12-25T02:48:42.419Z,17.58
2022-12-25T02:51:31.483Z,13.70
2022-12-25T02:54:20.043Z,14.35
2022-12-25T02:57:07.990Z,13.80
2022-12-25T02:59:56.804Z,19.45
2022-12-25T03:02:43.161Z,16.08
2022-12-25T03:05:33.187Z,12.80
2022-12-25T03:08:04.781Z,11.77
2022-12-25T03:10:53.778Z,13.88
2022-12-25T03:13:27.134Z,9.73
2022-12-25T03:16:12.607Z,15.00
2022-12-25T03:18:39.169Z,12.93
2022-12-25T03:21:24.600Z,11.27
2022-12-25T03:24:21.268Z,16.48
2022-12-25T03:26:57.965Z,15.15
2022-12-25T03:29:49.883Z,14.57
2022-12-25T03:32:34.132Z,14.50
2022-12-25T03:35:28.056Z,9.65
2022-12-25T03:38:19.348Z,13.73
2022-12-25T03:41:32.074Z,12.68
2022-12-25T03:44:26.443Z,10.63
2022-12-25T03:47:19.712Z,14.60
2022-12-25T03:50:38.633Z,8.93
2022-12-25T03:53:29.188Z,14.00
2022-12-25T03:56:15.574Z,9.07
2022-12-25T03:59:13.604Z,9.95
2022-12-25T04:02:00.904Z,11.70
2022-12-25T04:04:46.141Z,11.60
2022-12-25T04:07:31.064Z,13.10
2022-12-25T04:10:15.782Z,10.38
2022-12-25T04:13:00.641Z,8.45
2022-12-25T04:15:45.380Z,13.37
2022-12-25T04:18:30.859Z,10.02
2022-12-25T04:21:15.696Z,6.15
2022-12-25T04:24:00.437Z,8.85
2022-12-25T04:26:45.829Z,11.57
2022-12-25T04:29:30.567Z,10.77
2022-12-25T04:32:15.425Z,10.75
2022-12-25T04:35:00.267Z,8.98
2022-12-25T04:37:26.773Z,10.63
2022-12-25T04:39:53.137Z,8.23
2022-12-25T04:42:19.670Z,11.90
2022-12-25T04:44:46.002Z,13.65
2022-12-25T04:47:13.055Z,11.30
2022-12-25T04:49:39.599Z,8.07
2022-12-25T04:52:06.234Z,11.00
2022-12-25T04:54:32.639Z,11.57
2022-12-25T04:56:59.056Z,14.10
2022-12-25T04:59:25.393Z,6.80
2022-12-25T05:01:51.830Z,10.48
2022-12-25T05:04:18.249Z,9.30
2022-12-25T05:06:44.679Z,7.33
2022-12-25T05:09:11.055Z,6.93
2022-12-25T05:11:37.580Z,10.32
2022-12-25T05:14:03.957Z,7.72
2022-12-25T05:16:30.568Z,11.15
2022-12-25T05:18:57.438Z,15.70
2022-12-25T05:21:23.929Z,11.43
2022-12-25T05:23:51.666Z,6.82
2022-12-25T05:26:20.747Z,12.15
2022-12-25T05:28:47.528Z,5.35
2022-12-25T05:31:14.471Z,10.73
2022-12-25T05:33:40.944Z,6.15
2022-12-25T05:36:09.370Z,11.82
2022-12-25T05:38:35.946Z,4.35
2022-12-25T05:41:02.506Z,9.10
2022-12-25T05:43:29.967Z,11.30
2022-12-25T05:45:56.434Z,5.18
2022-12-25T05:48:23.277Z,7.97
2022-12-25T05:50:49.747Z,7.70
2022-12-25T05:53:16.761Z,6.18
2022-12-25T05:55:43.579Z,7.47
2022-12-25T05:58:11.901Z,6.53
2022-12-25T06:00:38.460Z,8.82
2022-12-25T06:03:04.970Z,7.72
2022-12-25T06:05:31.979Z,5.30
2022-12-25T06:07:58.768Z,10.90
2022-12-25T06:10:25.203Z,5.43
2022-12-25T06:12:51.536Z,4.75
2022-12-25T06:15:18.036Z,5.28
2022-12-25T06:17:44.379Z,5.43
2022-12-25T06:20:10.912Z,5.70
2022-12-25T06:22:37.238Z,6.70
2022-12-25T06:25:03.886Z,3.80
2022-12-25T06:27:30.208Z,10.85
2022-12-25T06:29:56.648Z,4.57
2022-12-25T06:32:23.046Z,6.53
2022-12-25T06:34:49.436Z,5.15
2022-12-25T06:37:15.993Z,6.18
2022-12-25T06:39:42.303Z,4.80
2022-12-25T06:42:09.059Z,4.82
2022-12-25T06:44:35.392Z,4.63
2022-12-25T06:47:01.767Z,5.75
2022-12-25T06:49:28.265Z,3.60
2022-12-25T06:51:54.614Z,5.05
2022-12-25T06:54:21.108Z,10.32
2022-12-25T06:56:48.612Z,7.60
2022-12-25T06:59:14.968Z,4.20
2022-12-25T07:01:51.098Z,3.78
2022-12-25T07:04:25.189Z,3.40
2022-12-25T07:06:52.170Z,5.15
2022-12-25T07:09:18.589Z,10.73
2022-12-25T07:11:45.057Z,5.20
2022-12-25T07:14:23.906Z,3.40
2022-12-25T07:16:50.859Z,6.50
2022-12-25T07:19:17.407Z,4.00
2022-12-25T07:21:43.768Z,5.57
2022-12-25T07:24:10.828Z,5.22
2022-12-25T07:26:37.218Z,7.47
2022-12-25T07:29:03.546Z,7.20
2022-12-25T07:31:30.021Z,6.45
2022-12-25T07:33:56.490Z,6.87
2022-12-25T07:36:22.962Z,3.40
2022-12-25T07:38:50.107Z,4.05
2022-12-25T07:41:16.651Z,2.72
2022-12-25T07:43:43.102Z,5.32
2022-12-25T07:46:10.070Z,4.60
2022-12-25T07:48:36.744Z,3.00
2022-12-25T07:51:06.551Z,5.47
2022-12-25T07:53:33.968Z,5.53
2022-12-25T07:56:03.596Z,5.07
2022-12-25T07:58:30.819Z,5.57
2022-12-25T08:01:04.265Z,3.10
2022-12-25T08:03:31.832Z,4.00
2022-12-25T08:06:06.947Z,3.53
2022-12-25T08:08:33.517Z,2.75
2022-12-25T08:10:59.950Z,6.10
2022-12-25T08:13:26.795Z,4.22
2022-12-25T08:16:01.167Z,3.90
2022-12-25T08:18:30.131Z,9.48
2022-12-25T08:20:56.990Z,3.30
2022-12-25T08:23:23.349Z,4.03
2022-12-25T08:25:49.788Z,6.68
2022-12-25T08:28:16.206Z,3.70
2022-12-25T08:30:42.677Z,5.70
2022-12-25T08:33:09.020Z,3.50
2022-12-25T08:35:36.061Z,6.47
2022-12-25T08:38:02.626Z,5.40
2022-12-25T08:40:29.032Z,3.42
2022-12-25T08:42:58.356Z,6.38
2022-12-25T08:45:27.392Z,7.82
2022-12-25T08:47:57.821Z,5.13
2022-12-25T08:50:25.089Z,2.60
2022-12-25T08:52:51.553Z,2.60
2022-12-25T08:55:18.024Z,3.85
2022-12-25T08:57:44.325Z,4.05
2022-12-25T09:00:11.233Z,8.53
2022-12-25T09:02:37.805Z,4.57
2022-12-25T09:05:04.714Z,3.28
2022-12-25T09:07:31.112Z,3.95
2022-12-25T09:09:57.501Z,2.60
2022-12-25T09:12:23.920Z,4.93
2022-12-25T09:14:50.361Z,5.10
2022-12-25T09:17:16.754Z,4.07
2022-12-25T09:19:43.150Z,3.30
2022-12-25T09:22:09.471Z,2.95
2022-12-25T09:24:35.848Z,3.77
2022-12-25T09:27:02.305Z,4.00
2022-12-25T09:29:28.633Z,4.82
2022-12-25T09:31:54.950Z,3.08
2022-12-25T09:34:21.302Z,5.38
2022-12-25T09:36:47.666Z,3.57
2022-12-25T09:39:13.964Z,3.72
2022-12-25T09:41:56.565Z,2.92
2022-12-25T09:44:27.521Z,11.30
2022-12-25T09:46:57.961Z,8.55
2022-12-25T09:49:35.440Z,3.83
2022-12-25T09:52:08.460Z,5.32
2022-12-25T09:54:49.731Z,4.45
2022-12-25T09:57:16.327Z,5.60
2022-12-25T09:59:44.747Z,7.72
2022-12-25T10:02:36.974Z,6.30
2022-12-25T10:05:15.334Z,10.23
2022-12-25T10:08:03.392Z,6.30
2022-12-25T10:10:32.861Z,5.05
2022-12-25T10:13:14.280Z,5.22
2022-12-25T10:16:16.087Z,4.30
2022-12-25T10:18:57.355Z,4.15
2022-12-25T10:21:23.972Z,3.97
2022-12-25T10:24:04.552Z,4.03
2022-12-25T10:26:33.412Z,5.05
2022-12-25T10:29:09.992Z,8.17
2022-12-25T10:31:37.186Z,7.07
2022-12-25T10:34:05.046Z,4.53
2022-12-25T10:36:32.467Z,4.30
2022-12-25T10:38:59.277Z,4.43
2022-12-25T10:41:37.610Z,5.63
2022-12-25T10:44:13.457Z,4.05
2022-12-25T10:46:40.804Z,3.67
2022-12-25T10:49:15.324Z,3.70
2022-12-25T10:51:41.683Z,4.60
2022-12-25T10:54:31.288Z,6.23
2022-12-25T10:57:07.725Z,5.13
2022-12-25T10:59:41.599Z,5.45
2022-12-25T11:02:15.862Z,6.07
2022-12-25T11:04:42.816Z,3.50
2022-12-25T11:07:24.277Z,4.43
2022-12-25T11:10:02.611Z,5.03
2022-12-25T11:12:36.046Z,4.78
2022-12-25T11:15:42.526Z,3.97
2022-12-25T11:18:32.346Z,5.55
2022-12-25T11:21:14.129Z,7.23
2022-12-25T11:23:48.585Z,5.35
2022-12-25T11:26:17.173Z,6.80
2022-12-25T11:28:45.359Z,5.55
2022-12-25T11:31:19.311Z,4.07
2022-12-25T11:33:50.429Z,5.07
2022-12-25T11:36:50.673Z,7.80
2022-12-25T11:39:37.645Z,8.13
2022-12-25T11:42:16.110Z,5.80
2022-12-25T11:44:45.824Z,4.32
2022-12-25T11:47:26.026Z,4.70
2022-12-25T11:50:00.895Z,6.90
2022-12-25T11:52:31.625Z,5.25
2022-12-25T11:55:23.822Z,6.50
2022-12-25T11:58:01.214Z,4.95
2022-12-25T12:00:30.597Z,7.87
2022-12-25T12:03:24.881Z,6.53
2022-12-25T12:05:58.187Z,5.78
2022-12-25T12:08:24.765Z,4.70
2022-12-25T12:11:16.078Z,5.68
2022-12-25T12:13:54.869Z,6.37
2022-12-25T12:16:21.368Z,4.43
2022-12-25T12:18:50.506Z,4.60
2022-12-25T12:21:29.952Z,4.75
2022-12-25T12:24:11.646Z,6.88
2022-12-25T12:26:41.110Z,5.57
2022-12-25T12:29:23.849Z,4.88
2022-12-25T12:31:51.324Z,5.43
2022-12-25T12:34:29.099Z,6.28
2022-12-25T12:37:02.105Z,6.90
2022-12-25T12:39:36.410Z,7.80
2022-12-25T12:42:16.782Z,5.25
2022-12-25T12:44:44.287Z,5.55
2022-12-25T12:47:27.817Z,4.53
2022-12-25T12:49:58.831Z,5.15
2022-12-25T12:52:34.513Z,5.57
2022-12-25T12:55:03.836Z,6.35
2022-12-25T12:57:34.363Z,7.47
2022-12-25T13:00:08.696Z,7.63
2022-12-25T13:02:37.076Z,6.35
2022-12-25T13:05:35.281Z,12.23
2022-12-25T13:08:39.499Z,6.85
2022-12-25T13:11:11.837Z,5.93
2022-12-25T13:13:44.467Z,4.72
2022-12-25T13:16:24.875Z,5.95
2022-12-25T13:18:53.346Z,5.70
2022-12-25T13:21:24.286Z,6.53
2022-12-25T13:23:57.340Z,5.85
2022-12-25T13:26:24.284Z,5.22
2022-12-25T13:28:50.690Z,5.68
2022-12-25T13:31:21.216Z,6.03
2022-12-25T13:34:04.298Z,6.18
2022-12-25T13:36:36.928Z,5.28
2022-12-25T13:39:07.206Z,5.65
2022-12-25T13:42:02.713Z,8.85
2022-12-25T13:44:38.028Z,7.00
2022-12-25T13:47:32.156Z,6.03
2022-12-25T13:50:00.529Z,6.10
2022-12-25T13:52:37.996Z,6.38
2022-12-25T13:55:14.696Z,6.25
2022-12-25T13:57:56.585Z,6.87
2022-12-25T14:00:38.072Z,5.40
2022-12-25T14:03:07.493Z,6.40
2022-12-25T14:05:42.206Z,5.88
2022-12-25T14:08:17.421Z,6.18
2022-12-25T14:10:46.741Z,6.33
2022-12-25T14:13:15.432Z,6.35
2022-12-25T14:15:44.964Z,6.30
2022-12-25T14:18:16.007Z,7.28
2022-12-25T14:21:13.897Z,6.03
2022-12-25T14:23:48.418Z,5.30
2022-12-25T14:26:20.775Z,5.45
2022-12-25T14:28:54.736Z,9.27
2022-12-25T14:31:22.385Z,9.95
2022-12-25T14:33:49.874Z,5.18
2022-12-25T14:36:16.372Z,5.70
2022-12-25T14:38:44.091Z,5.05
2022-12-25T14:41:34.323Z,5.80
2022-12-25T14:44:04.650Z,4.80
2022-12-25T14:46:33.274Z,5.38
2022-12-25T14:49:01.367Z,5.37
2022-12-25T14:51:29.121Z,6.47
2022-12-25T14:53:58.815Z,6.43
2022-12-25T14:56:27.683Z,7.03
2022-12-25T14:58:57.174Z,8.48
2022-12-25T15:01:31.578Z,7.23
2022-12-25T15:04:07.582Z,6.43
2022-12-25T15:06:34.119Z,7.25
2022-12-25T15:09:06.698Z,6.80
2022-12-25T15:11:33.061Z,7.40
2022-12-25T15:13:59.517Z,6.77
2022-12-25T15:16:30.917Z,6.95
2022-12-25T15:18:57.508Z,7.65
2022-12-25T15:21:30.404Z,6.13
2022-12-25T15:23:58.900Z,6.45
2022-12-25T15:26:26.896Z,6.27
2022-12-25T15:28:53.230Z,6.78
2022-12-25T15:31:25.005Z,7.95
2022-12-25T15:33:54.430Z,7.95
2022-12-25T15:36:21.678Z,7.10
2022-12-25T15:38:48.426Z,7.10
2022-12-25T15:41:39.695Z,7.10
2022-12-25T15:44:06.620Z,7.00
2022-12-25T15:46:34.418Z,6.45
2022-12-25T15:49:01.248Z,7.20
2022-12-25T15:51:27.886Z,10.53
2022-12-25T15:53:54.424Z,11.35
2022-12-25T15:56:21.952Z,12.02
2022-12-25T15:58:48.368Z,11.52
2022-12-25T16:01:16.479Z,10.32
2022-12-25T16:03:43.890Z,10.00
2022-12-25T16:06:18.110Z,8.55
2022-12-25T16:08:45.712Z,6.20
2022-12-25T16:11:12.183Z,6.45
2022-12-25T16:13:38.744Z,7.57
2022-12-25T16:16:06.763Z,8.87
2022-12-25T16:18:33.228Z,8.20
2022-12-25T16:20:59.973Z,7.63
2022-12-25T16:23:26.356Z,6.68
2022-12-25T16:25:52.782Z,6.47
2022-12-25T16:28:19.231Z,11.53
2022-12-25T16:30:45.718Z,12.52
2022-12-25T16:33:12.147Z,11.98
2022-12-25T16:35:38.689Z,12.38
2022-12-25T16:38:05.197Z,10.77
2022-12-25T16:40:31.768Z,10.40
2022-12-25T16:42:58.154Z,11.13
2022-12-25T16:45:24.480Z,9.57
2022-12-25T16:47:50.905Z,7.63
2022-12-25T16:50:17.457Z,7.57
2022-12-25T16:52:43.908Z,10.03
2022-12-25T16:55:10.505Z,11.02
2022-12-25T16:57:37.544Z,10.35
2022-12-25T17:00:04.356Z,10.85
2022-12-25T17:02:30.946Z,10.00
2022-12-25T17:04:57.473Z,10.03
2022-12-25T17:07:23.857Z,9.68
2022-12-25T17:09:50.255Z,9.43
2022-12-25T17:12:16.867Z,10.63
2022-12-25T17:14:43.250Z,12.00
2022-12-25T17:17:09.639Z,10.97
2022-12-25T17:19:36.052Z,11.07
2022-12-25T17:22:02.468Z,11.52
2022-12-25T17:24:28.972Z,11.57
2022-12-25T17:26:55.733Z,10.70
2022-12-25T17:29:23.106Z,9.17
2022-12-25T17:31:50.538Z,9.00
2022-12-25T17:34:16.963Z,8.57
2022-12-25T17:36:43.362Z,10.27
2022-12-25T17:39:10.260Z,9.63
2022-12-25T17:41:36.668Z,10.83
2022-12-25T17:44:03.293Z,10.32
2022-12-25T17:46:30.997Z,13.73
2022-12-25T17:48:58.912Z,15.93
2022-12-25T17:51:27.267Z,12.50
2022-12-25T17:53:57.907Z,11.63
2022-12-25T17:56:24.698Z,12.68
2022-12-25T17:58:56.730Z,13.57
2022-12-25T18:01:24.466Z,12.27
2022-12-25T18:03:51.505Z,16.35
2022-12-25T18:06:20.661Z,13.63
2022-12-25T18:08:47.807Z,14.48
2022-12-25T18:11:17.951Z,14.13
2022-12-25T18:13:48.304Z,20.40
2022-12-25T18:16:16.436Z,20.92
2022-12-25T18:18:51.172Z,14.10
2022-12-25T18:21:19.135Z,16.98
2022-12-25T18:23:46.222Z,16.75
2022-12-25T18:26:12.614Z,16.20
2022-12-25T18:28:39.707Z,21.80
2022-12-25T18:31:26.446Z,19.90
2022-12-25T18:33:53.843Z,12.90
2022-12-25T18:36:22.708Z,12.32
2022-12-25T18:38:50.379Z,10.98
2022-12-25T18:41:17.709Z,9.82
2022-12-25T18:43:54.195Z,9.87
2022-12-25T18:46:26.877Z,10.23
2022-12-25T18:48:55.669Z,12.00
2022-12-25T18:51:22.144Z,12.98
2022-12-25T18:53:48.477Z,11.10
2022-12-25T18:56:17.360Z,11.37
2022-12-25T18:58:44.256Z,10.70
2022-12-25T19:01:17.176Z,11.77
2022-12-25T19:03:44.391Z,16.38
2022-12-25T19:06:17.474Z,13.73
2022-12-25T19:08:43.977Z,18.70
2022-12-25T19:11:10.395Z,17.00
2022-12-25T19:13:36.820Z,16.98
2022-12-25T19:16:03.772Z,18.00
2022-12-25T19:18:30.401Z,17.50
2022-12-25T19:20:56.801Z,20.03
2022-12-25T19:23:23.129Z,17.13
2022-12-25T19:25:49.569Z,22.58
2022-12-25T19:28:17.674Z,24.27
2022-12-25T19:30:44.270Z,22.30
2022-12-25T19:33:17.309Z,21.67
2022-12-25T19:35:44.287Z,25.13
2022-12-25T19:38:10.627Z,25.73
2022-12-25T19:40:38.333Z,23.20
2022-12-25T19:43:05.027Z,26.83
2022-12-25T19:45:31.684Z,34.73
2022-12-25T19:47:58.204Z,36.42
2022-12-25T19:50:30.645Z,29.58
2022-12-25T19:52:57.051Z,15.82
2022-12-25T19:55:23.490Z,14.52
2022-12-25T19:57:49.884Z,18.53
2022-12-25T20:00:16.647Z,14.38
2022-12-25T20:02:43.049Z,15.13
2022-12-25T20:05:09.587Z,16.10
2022-12-25T20:07:35.990Z,13.18
2022-12-25T20:10:02.399Z,13.60
2022-12-25T20:12:28.720Z,12.63
2022-12-25T20:14:55.054Z,11.65
2022-12-25T20:17:21.380Z,22.27
2022-12-25T20:19:47.718Z,14.98
2022-12-25T20:22:14.158Z,16.10
2022-12-25T20:24:40.609Z,12.35
2022-12-25T20:27:06.944Z,10.82
2022-12-25T20:29:33.273Z,10.63
2022-12-25T20:31:59.727Z,9.18
2022-12-25T20:34:26.169Z,9.57
2022-12-25T20:36:52.543Z,10.15
2022-12-25T20:39:19.038Z,10.70
2022-12-25T20:41:46.720Z,11.50
2022-12-25T20:44:13.368Z,12.02
2022-12-25T20:46:39.815Z,10.37
2022-12-25T20:49:06.394Z,11.38
2022-12-25T20:51:32.913Z,9.90
2022-12-25T20:53:59.393Z,12.90
2022-12-25T20:56:27.083Z,11.82
2022-12-25T20:58:58.965Z,13.07
2022-12-25T21:01:27.144Z,17.50
2022-12-25T21:03:54.089Z,16.70
2022-12-25T21:06:21.273Z,12.68
2022-12-25T21:08:48.026Z,12.60
2022-12-25T21:11:15.564Z,14.80
2022-12-25T21:13:43.812Z,12.00
2022-12-25T21:16:13.203Z,15.52
2022-12-25T21:18:40.156Z,11.77
2022-12-25T21:21:07.737Z,14.32
2022-12-25T21:23:36.684Z,14.10
2022-12-25T21:26:21.223Z,13.55
2022-12-25T21:28:49.073Z,12.13
2022-12-25T21:31:15.974Z,12.20
2022-12-25T21:33:51.763Z,11.40
2022-12-25T21:36:24.286Z,10.93
2022-12-25T21:39:06.088Z,14.32
2022-12-25T21:41:34.043Z,19.65
2022-12-25T21:44:01.162Z,14.35
2022-12-25T21:46:28.629Z,13.20
2022-12-25T21:48:55.808Z,14.73
2022-12-25T21:51:49.162Z,15.88
2022-12-25T21:54:17.188Z,12.55
2022-12-25T21:56:47.016Z,14.18
2022-12-25T21:59:16.134Z,13.68
2022-12-25T22:01:43.595Z,14.47
2022-12-25T22:04:10.997Z,16.20
2022-12-25T22:06:56.053Z,15.80
2022-12-25T22:09:23.377Z,15.73
2022-12-25T22:12:08.344Z,12.13
2022-12-25T22:14:53.318Z,15.67
2022-12-25T22:17:40.984Z,15.45
2022-12-25T22:20:10.560Z,13.90
2022-12-25T22:22:37.099Z,12.48
2022-12-25T22:25:05.373Z,13.23
2022-12-25T22:27:33.703Z,11.93
2022-12-25T22:30:00.412Z,13.93
2022-12-25T22:32:27.670Z,9.68
2022-12-25T22:34:54.296Z,11.75
2022-12-25T22:37:20.722Z,9.63
2022-12-25T22:39:47.116Z,9.73
2022-12-25T22:42:13.724Z,8.77
2022-12-25T22:44:40.152Z,8.52
2022-12-25T22:47:06.586Z,8.32
2022-12-25T22:49:33.031Z,9.57
2022-12-25T22:51:59.728Z,13.47
2022-12-25T22:54:30.607Z,8.73
2022-12-25T22:56:58.033Z,10.27
2022-12-25T22:59:24.452Z,8.60
2022-12-25T23:01:51.168Z,8.68
2022-12-25T23:04:17.869Z,7.60
2022-12-25T23:06:44.948Z,9.85
2022-12-25T23:09:20.455Z,10.10
2022-12-25T23:11:50.679Z,7.25
2022-12-25T23:14:36.108Z,8.40
2022-12-25T23:17:02.418Z,8.67
2022-12-25T23:19:47.210Z,8.77
2022-12-25T23:22:32.523Z,7.43
2022-12-25T23:25:17.916Z,6.47
2022-12-25T23:27:45.000Z,7.47
2022-12-25T23:30:16.442Z,6.97
2022-12-25T23:32:44.168Z,10.27
2022-12-25T23:35:11.668Z,8.80
2022-12-25T23:37:38.056Z,6.18
2022-12-25T23:40:05.207Z,7.07
2022-12-25T23:42:31.850Z,6.77
2022-12-25T23:44:58.223Z,8.40
2022-12-25T23:47:24.590Z,6.93
2022-12-25T23:49:50.956Z,7.63
2022-12-25T23:52:17.336Z,9.38
2022-12-25T23:54:43.748Z,8.37
2022-12-25T23:57:10.173Z,8.02
2022-12-25T23:59:36.637Z,7.15
